sensor_id;sensor_type;location;lat;lon;timestamp;pressure;altitude;pressure_sealevel;temperature;humidity
45275;BME280;31019;43.780;25.948;2024-03-08T00:00:24;101530.25;;;4.12;100.00
45275;BME280;31019;43.780;25.948;2024-03-08T00:02:51;101531.38;;;4.10;100.00
45275;BME280;31019;43.780;25.948;2024-03-08T00:05:22;101529.53;;;4.20;100.00
45275;BME280;31019;43.780;25.948;2024-03-08T00:07:56;101534.13;;;4.08;100.00
45275;BME280;31019;43.780;25.948;2024-03-08T00:10:24;101528.50;;;4.03;100.00
45275;BME280;31019;43.780;25.948;2024-03-08T00:12:54;101526.81;;;4.67;100.00
45275;BME280;31019;43.780;25.948;2024-03-08T00:15:21;101526.03;;;3.92;100.00
45275;BME280;31019;43.780;25.948;2024-03-08T00:17:48;101519.41;;;4.98;100.00
45275;BME280;31019;43.780;25.948;2024-03-08T00:20:16;101519.91;;;4.01;100.00
45275;BME280;31019;43.780;25.948;2024-03-08T00:22:43;101515.09;;;3.97;100.00
45275;BME280;31019;43.780;25.948;2024-03-08T00:25:11;101508.84;;;3.98;100.00
45275;BME280;31019;43.780;25.948;2024-03-08T00:27:39;101507.63;;;3.92;100.00
45275;BME280;31019;43.780;25.948;2024-03-08T00:30:07;101513.31;;;3.87;100.00
45275;BME280;31019;43.780;25.948;2024-03-08T00:32:34;101514.38;;;4.04;100.00
45275;BME280;31019;43.780;25.948;2024-03-08T00:35:02;101509.44;;;3.92;100.00
45275;BME280;31019;43.780;25.948;2024-03-08T00:37:29;101509.59;;;3.80;100.00
45275;BME280;31019;43.780;25.948;2024-03-08T00:40:02;101516.25;;;3.75;100.00
45275;BME280;31019;43.780;25.948;2024-03-08T00:42:29;101510.31;;;3.63;100.00
45275;BME280;31019;43.780;25.948;2024-03-08T00:44:58;101520.44;;;3.58;100.00
45275;BME280;31019;43.780;25.948;2024-03-08T00:47:24;101519.91;;;3.54;100.00
45275;BME280;31019;43.780;25.948;2024-03-08T00:49:51;101522.63;;;3.62;100.00
45275;BME280;31019;43.780;25.948;2024-03-08T00:52:18;101520.16;;;3.61;100.00
45275;BME280;31019;43.780;25.948;2024-03-08T00:54:45;101525.38;;;3.71;100.00
45275;BME280;31019;43.780;25.948;2024-03-08T00:57:12;101518.88;;;3.75;100.00
45275;BME280;31019;43.780;25.948;2024-03-08T00:59:39;101515.97;;;3.68;100.00
45275;BME280;31019;43.780;25.948;2024-03-08T01:02:07;101520.25;;;3.79;100.00
45275;BME280;31019;43.780;25.948;2024-03-08T01:04:35;101524.56;;;3.70;100.00
45275;BME280;31019;43.780;25.948;2024-03-08T01:07:01;101522.25;;;3.57;100.00
45275;BME280;31019;43.780;25.948;2024-03-08T01:09:28;101517.91;;;3.66;100.00
45275;BME280;31019;43.780;25.948;2024-03-08T01:11:55;101522.91;;;3.59;100.00
45275;BME280;31019;43.780;25.948;2024-03-08T01:14:23;101512.66;;;3.76;100.00
45275;BME280;31019;43.780;25.948;2024-03-08T01:16:54;101511.03;;;3.55;100.00
45275;BME280;31019;43.780;25.948;2024-03-08T01:19:23;101507.13;;;3.69;100.00
45275;BME280;31019;43.780;25.948;2024-03-08T01:21:50;101514.34;;;3.57;100.00
45275;BME280;31019;43.780;25.948;2024-03-08T01:24:17;101511.56;;;3.68;100.00
45275;BME280;31019;43.780;25.948;2024-03-08T01:26:44;101510.56;;;3.79;100.00
45275;BME280;31019;43.780;25.948;2024-03-08T01:29:12;101517.66;;;3.59;100.00
45275;BME280;31019;43.780;25.948;2024-03-08T01:31:39;101517.94;;;3.56;100.00
45275;BME280;31019;43.780;25.948;2024-03-08T01:34:06;101520.16;;;3.61;100.00
45275;BME280;31019;43.780;25.948;2024-03-08T01:36:34;101516.25;;;3.75;100.00
45275;BME280;31019;43.780;25.948;2024-03-08T01:39:03;101519.31;;;3.60;100.00
45275;BME280;31019;43.780;25.948;2024-03-08T01:41:33;101520.72;;;3.55;100.00
45275;BME280;31019;43.780;25.948;2024-03-08T01:44:01;101525.41;;;3.61;100.00
45275;BME280;31019;43.780;25.948;2024-03-08T01:46:29;101522.34;;;3.65;100.00
45275;BME280;31019;43.780;25.948;2024-03-08T01:48:56;101529.13;;;3.58;100.00
45275;BME280;31019;43.780;25.948;2024-03-08T01:51:23;101533.13;;;3.62;100.00
45275;BME280;31019;43.780;25.948;2024-03-08T01:53:51;101528.16;;;3.59;100.00
45275;BME280;31019;43.780;25.948;2024-03-08T01:56:18;101528.97;;;3.60;100.00
45275;BME280;31019;43.780;25.948;2024-03-08T01:58:45;101529.97;;;3.59;100.00
45275;BME280;31019;43.780;25.948;2024-03-08T02:01:13;101525.13;;;3.64;100.00
45275;BME280;31019;43.780;25.948;2024-03-08T02:03:41;101534.34;;;3.78;100.00
45275;BME280;31019;43.780;25.948;2024-03-08T02:06:09;101531.88;;;3.57;100.00
45275;BME280;31019;43.780;25.948;2024-03-08T02:08:36;101532.56;;;3.68;100.00
45275;BME280;31019;43.780;25.948;2024-03-08T02:11:05;101531.06;;;3.66;100.00
45275;BME280;31019;43.780;25.948;2024-03-08T02:13:32;101537.28;;;3.65;100.00
45275;BME280;31019;43.780;25.948;2024-03-08T02:16:00;101532.16;;;3.54;100.00
45275;BME280;31019;43.780;25.948;2024-03-08T02:18:28;101535.09;;;3.60;100.00
45275;BME280;31019;43.780;25.948;2024-03-08T02:20:58;101535.34;;;3.48;100.00
45275;BME280;31019;43.780;25.948;2024-03-08T02:23:40;101525.94;;;3.64;100.00
45275;BME280;31019;43.780;25.948;2024-03-08T02:26:06;101533.59;;;3.48;100.00
45275;BME280;31019;43.780;25.948;2024-03-08T02:28:33;101533.41;;;3.59;100.00
45275;BME280;31019;43.780;25.948;2024-03-08T02:31:00;101531.50;;;3.52;100.00
45275;BME280;31019;43.780;25.948;2024-03-08T02:33:28;101529.16;;;3.49;100.00
45275;BME280;31019;43.780;25.948;2024-03-08T02:35:56;101529.69;;;3.62;100.00
45275;BME280;31019;43.780;25.948;2024-03-08T02:38:23;101531.22;;;3.55;100.00
45275;BME280;31019;43.780;25.948;2024-03-08T02:40:51;101533.56;;;3.67;100.00
45275;BME280;31019;43.780;25.948;2024-03-08T02:43:19;101540.34;;;3.60;100.00
45275;BME280;31019;43.780;25.948;2024-03-08T02:45:47;101535.78;;;3.43;100.00
45275;BME280;31019;43.780;25.948;2024-03-08T02:48:15;101534.53;;;3.57;100.00
45275;BME280;31019;43.780;25.948;2024-03-08T02:50:42;101528.56;;;3.64;100.00
45275;BME280;31019;43.780;25.948;2024-03-08T02:53:11;101532.88;;;3.46;100.00
45275;BME280;31019;43.780;25.948;2024-03-08T02:55:39;101535.22;;;3.49;100.00
45275;BME280;31019;43.780;25.948;2024-03-08T02:58:07;101547.81;;;3.55;100.00
45275;BME280;31019;43.780;25.948;2024-03-08T03:00:35;101543.25;;;3.48;100.00
45275;BME280;31019;43.780;25.948;2024-03-08T03:03:03;101547.09;;;3.53;100.00
45275;BME280;31019;43.780;25.948;2024-03-08T03:05:30;101543.53;;;3.54;100.00
45275;BME280;31019;43.780;25.948;2024-03-08T03:07:57;101535.94;;;3.51;100.00
45275;BME280;31019;43.780;25.948;2024-03-08T03:10:25;101534.28;;;3.31;100.00
45275;BME280;31019;43.780;25.948;2024-03-08T03:12:52;101536.19;;;3.29;100.00
45275;BME280;31019;43.780;25.948;2024-03-08T03:15:33;101536.19;;;3.29;100.00
45275;BME280;31019;43.780;25.948;2024-03-08T03:18:00;101532.88;;;3.27;100.00
45275;BME280;31019;43.780;25.948;2024-03-08T03:20:27;101536.63;;;3.24;100.00
45275;BME280;31019;43.780;25.948;2024-03-08T03:22:58;101534.13;;;3.32;100.00
45275;BME280;31019;43.780;25.948;2024-03-08T03:25:28;101527.66;;;3.36;100.00
45275;BME280;31019;43.780;25.948;2024-03-08T03:27:59;101537.72;;;3.21;100.00
45275;BME280;31019;43.780;25.948;2024-03-08T03:30:26;101541.72;;;3.16;100.00
45275;BME280;31019;43.780;25.948;2024-03-08T03:32:58;101539.53;;;3.31;100.00
45275;BME280;31019;43.780;25.948;2024-03-08T03:35:26;101535.50;;;3.27;100.00
45275;BME280;31019;43.780;25.948;2024-03-08T03:37:53;101535.91;;;3.41;100.00
45275;BME280;31019;43.780;25.948;2024-03-08T03:40:29;101534.56;;;3.18;100.00
45275;BME280;31019;43.780;25.948;2024-03-08T03:42:56;101537.31;;;3.07;100.00
45275;BME280;31019;43.780;25.948;2024-03-08T03:45:23;101548.19;;;3.80;100.00
45275;BME280;31019;43.780;25.948;2024-03-08T03:47:51;101543.41;;;3.36;100.00
45275;BME280;31019;43.780;25.948;2024-03-08T03:50:18;101541.47;;;3.09;100.00
45275;BME280;31019;43.780;25.948;2024-03-08T03:52:45;101537.56;;;3.04;100.00
45275;BME280;31019;43.780;25.948;2024-03-08T03:55:12;101547.38;;;3.02;100.00
45275;BME280;31019;43.780;25.948;2024-03-08T03:57:41;101548.34;;;3.30;100.00
45275;BME280;31019;43.780;25.948;2024-03-08T04:00:11;101557.00;;;3.98;100.00
45275;BME280;31019;43.780;25.948;2024-03-08T04:02:38;101554.72;;;3.56;100.00
45275;BME280;31019;43.780;25.948;2024-03-08T04:05:07;101564.53;;;3.25;100.00
45275;BME280;31019;43.780;25.948;2024-03-08T04:07:34;101550.97;;;3.30;100.00
45275;BME280;31019;43.780;25.948;2024-03-08T04:10:02;101561.47;;;3.30;100.00
45275;BME280;31019;43.780;25.948;2024-03-08T04:12:29;101561.03;;;3.05;100.00
45275;BME280;31019;43.780;25.948;2024-03-08T04:14:57;101563.41;;;3.08;100.00
45275;BME280;31019;43.780;25.948;2024-03-08T04:17:33;101553.47;;;3.12;100.00
45275;BME280;31019;43.780;25.948;2024-03-08T04:20:02;101549.19;;;3.11;100.00
45275;BME280;31019;43.780;25.948;2024-03-08T04:22:35;101547.81;;;3.07;100.00
45275;BME280;31019;43.780;25.948;2024-03-08T04:25:02;101555.00;;;3.34;100.00
45275;BME280;31019;43.780;25.948;2024-03-08T04:27:29;101559.81;;;3.09;100.00
45275;BME280;31019;43.780;25.948;2024-03-08T04:29:57;101559.00;;;3.67;100.00
45275;BME280;31019;43.780;25.948;2024-03-08T04:32:24;101558.84;;;3.30;100.00
45275;BME280;31019;43.780;25.948;2024-03-08T04:34:51;101556.50;;;3.17;100.00
45275;BME280;31019;43.780;25.948;2024-03-08T04:37:18;101558.31;;;3.36;100.00
45275;BME280;31019;43.780;25.948;2024-03-08T04:39:47;101551.97;;;3.29;100.00
45275;BME280;31019;43.780;25.948;2024-03-08T04:42:15;101552.66;;;3.31;100.00
45275;BME280;31019;43.780;25.948;2024-03-08T04:44:43;101557.34;;;3.56;100.00
45275;BME280;31019;43.780;25.948;2024-03-08T04:47:12;101558.41;;;3.05;100.00
45275;BME280;31019;43.780;25.948;2024-03-08T04:49:39;101551.41;;;3.44;100.00
45275;BME280;31019;43.780;25.948;2024-03-08T04:52:06;101550.84;;;3.31;100.00
45275;BME280;31019;43.780;25.948;2024-03-08T04:54:33;101554.16;;;3.14;100.00
45275;BME280;31019;43.780;25.948;2024-03-08T04:57:00;101569.06;;;3.91;100.00
45275;BME280;31019;43.780;25.948;2024-03-08T04:59:27;101564.19;;;2.89;100.00
45275;BME280;31019;43.780;25.948;2024-03-08T05:01:55;101567.44;;;3.32;100.00
45275;BME280;31019;43.780;25.948;2024-03-08T05:04:24;101572.78;;;2.91;100.00
45275;BME280;31019;43.780;25.948;2024-03-08T05:06:50;101576.34;;;2.90;100.00
45275;BME280;31019;43.780;25.948;2024-03-08T05:09:17;101579.84;;;3.20;100.00
45275;BME280;31019;43.780;25.948;2024-03-08T05:11:45;101583.34;;;3.40;100.00
45275;BME280;31019;43.780;25.948;2024-03-08T05:14:14;101591.44;;;2.98;100.00
45275;BME280;31019;43.780;25.948;2024-03-08T05:16:43;101588.91;;;2.87;100.00
45275;BME280;31019;43.780;25.948;2024-03-08T05:19:14;101589.81;;;3.16;100.00
45275;BME280;31019;43.780;25.948;2024-03-08T05:21:43;101589.81;;;3.07;100.00
45275;BME280;31019;43.780;25.948;2024-03-08T05:24:10;101596.41;;;2.91;100.00
45275;BME280;31019;43.780;25.948;2024-03-08T05:26:38;101599.00;;;2.82;100.00
45275;BME280;31019;43.780;25.948;2024-03-08T05:29:11;101599.53;;;3.45;100.00
45275;BME280;31019;43.780;25.948;2024-03-08T05:31:45;101604.56;;;2.98;100.00
45275;BME280;31019;43.780;25.948;2024-03-08T05:34:13;101602.31;;;2.84;100.00
45275;BME280;31019;43.780;25.948;2024-03-08T05:37:06;101611.53;;;3.28;100.00
45275;BME280;31019;43.780;25.948;2024-03-08T05:39:34;101616.44;;;3.02;100.00
45275;BME280;31019;43.780;25.948;2024-03-08T05:42:00;101623.19;;;2.85;100.00
45275;BME280;31019;43.780;25.948;2024-03-08T05:44:27;101621.41;;;2.95;100.00
45275;BME280;31019;43.780;25.948;2024-03-08T05:46:56;101628.56;;;2.93;100.00
45275;BME280;31019;43.780;25.948;2024-03-08T05:49:23;101625.44;;;2.69;100.00
45275;BME280;31019;43.780;25.948;2024-03-08T05:51:50;101630.41;;;2.62;100.00
45275;BME280;31019;43.780;25.948;2024-03-08T05:54:18;101631.44;;;3.60;100.00
45275;BME280;31019;43.780;25.948;2024-03-08T05:56:47;101637.44;;;3.02;100.00
45275;BME280;31019;43.780;25.948;2024-03-08T05:59:18;101639.75;;;8.24;100.00
45275;BME280;31019;43.780;25.948;2024-03-08T06:01:45;101642.25;;;3.76;100.00
45275;BME280;31019;43.780;25.948;2024-03-08T06:04:12;101649.75;;;3.02;100.00
45275;BME280;31019;43.780;25.948;2024-03-08T06:06:39;101644.91;;;2.97;100.00
45275;BME280;31019;43.780;25.948;2024-03-08T06:09:06;101648.78;;;3.03;100.00
45275;BME280;31019;43.780;25.948;2024-03-08T06:11:38;101653.97;;;2.93;100.00
45275;BME280;31019;43.780;25.948;2024-03-08T06:14:05;101649.13;;;2.79;100.00
45275;BME280;31019;43.780;25.948;2024-03-08T06:16:32;101654.34;;;3.19;100.00
45275;BME280;31019;43.780;25.948;2024-03-08T06:18:59;101651.75;;;2.79;100.00
45275;BME280;31019;43.780;25.948;2024-03-08T06:21:27;101660.00;;;2.74;100.00
45275;BME280;31019;43.780;25.948;2024-03-08T06:24:00;101660.53;;;2.68;100.00
45275;BME280;31019;43.780;25.948;2024-03-08T06:26:27;101663.72;;;2.71;100.00
45275;BME280;31019;43.780;25.948;2024-03-08T06:28:56;101664.16;;;2.77;100.00
45275;BME280;31019;43.780;25.948;2024-03-08T06:31:24;101666.81;;;2.86;100.00
45275;BME280;31019;43.780;25.948;2024-03-08T06:33:51;101667.94;;;2.93;100.00
45275;BME280;31019;43.780;25.948;2024-03-08T06:36:19;101667.38;;;2.90;100.00
45275;BME280;31019;43.780;25.948;2024-03-08T06:38:47;101666.69;;;2.88;100.00
45275;BME280;31019;43.780;25.948;2024-03-08T06:41:14;101674.84;;;2.85;100.00
45275;BME280;31019;43.780;25.948;2024-03-08T06:43:42;101667.09;;;2.93;100.00
45275;BME280;31019;43.780;25.948;2024-03-08T06:46:10;101672.53;;;3.01;100.00
45275;BME280;31019;43.780;25.948;2024-03-08T06:48:38;101673.06;;;2.95;100.00
45275;BME280;31019;43.780;25.948;2024-03-08T06:51:05;101678.59;;;3.02;100.00
45275;BME280;31019;43.780;25.948;2024-03-08T06:53:32;101676.97;;;3.10;100.00
45275;BME280;31019;43.780;25.948;2024-03-08T06:56:00;101678.91;;;3.08;100.00
45275;BME280;31019;43.780;25.948;2024-03-08T06:58:33;101683.75;;;3.13;100.00
45275;BME280;31019;43.780;25.948;2024-03-08T07:01:00;101687.09;;;3.15;100.00
45275;BME280;31019;43.780;25.948;2024-03-08T07:03:30;101686.97;;;3.26;100.00
45275;BME280;31019;43.780;25.948;2024-03-08T07:05:57;101687.22;;;3.13;100.00
45275;BME280;31019;43.780;25.948;2024-03-08T07:08:24;101681.97;;;3.13;100.00
45275;BME280;31019;43.780;25.948;2024-03-08T07:10:52;101679.91;;;3.27;100.00
45275;BME280;31019;43.780;25.948;2024-03-08T07:13:22;101687.09;;;3.15;100.00
45275;BME280;31019;43.780;25.948;2024-03-08T07:15:59;101693.31;;;3.24;100.00
45275;BME280;31019;43.780;25.948;2024-03-08T07:18:26;101683.13;;;3.30;100.00
45275;BME280;31019;43.780;25.948;2024-03-08T07:20:56;101692.63;;;3.12;100.00
45275;BME280;31019;43.780;25.948;2024-03-08T07:23:29;101684.50;;;3.25;100.00
45275;BME280;31019;43.780;25.948;2024-03-08T07:26:28;101677.59;;;3.33;100.00
45275;BME280;31019;43.780;25.948;2024-03-08T07:28:56;101691.56;;;3.43;100.00
45275;BME280;31019;43.780;25.948;2024-03-08T07:31:24;101684.69;;;3.52;100.00
45275;BME280;31019;43.780;25.948;2024-03-08T07:34:00;101692.28;;;3.55;100.00
45275;BME280;31019;43.780;25.948;2024-03-08T07:36:30;101689.13;;;3.52;100.00
45275;BME280;31019;43.780;25.948;2024-03-08T07:38:57;101684.53;;;3.44;100.00
45275;BME280;31019;43.780;25.948;2024-03-08T07:41:23;101695.31;;;3.51;100.00
45275;BME280;31019;43.780;25.948;2024-03-08T07:43:51;101687.28;;;3.42;100.00
45275;BME280;31019;43.780;25.948;2024-03-08T07:46:18;101690.78;;;3.62;100.00
45275;BME280;31019;43.780;25.948;2024-03-08T07:48:45;101699.88;;;3.39;100.00
45275;BME280;31019;43.780;25.948;2024-03-08T07:51:11;101690.38;;;3.57;100.00
45275;BME280;31019;43.780;25.948;2024-03-08T07:53:40;101694.09;;;3.64;100.00
45275;BME280;31019;43.780;25.948;2024-03-08T07:56:07;101694.97;;;3.84;100.00
45275;BME280;31019;43.780;25.948;2024-03-08T07:58:36;101700.19;;;5.63;100.00
45275;BME280;31019;43.780;25.948;2024-03-08T08:01:04;101699.66;;;4.00;100.00
45275;BME280;31019;43.780;25.948;2024-03-08T08:03:30;101701.03;;;3.95;100.00
45275;BME280;31019;43.780;25.948;2024-03-08T08:05:57;101704.06;;;3.90;100.00
45275;BME280;31019;43.780;25.948;2024-03-08T08:08:24;101710.56;;;3.86;100.00
45275;BME280;31019;43.780;25.948;2024-03-08T08:10:53;101704.34;;;3.87;100.00
45275;BME280;31019;43.780;25.948;2024-03-08T08:13:20;101704.88;;;3.81;100.00
45275;BME280;31019;43.780;25.948;2024-03-08T08:15:48;101703.38;;;3.88;100.00
45275;BME280;31019;43.780;25.948;2024-03-08T08:18:15;101708.78;;;3.77;100.00
45275;BME280;31019;43.780;25.948;2024-03-08T08:20:42;101719.16;;;4.07;100.00
45275;BME280;31019;43.780;25.948;2024-03-08T08:23:09;101706.13;;;3.86;100.00
45275;BME280;31019;43.780;25.948;2024-03-08T08:25:37;101714.88;;;3.97;100.00
45275;BME280;31019;43.780;25.948;2024-03-08T08:28:05;101712.81;;;3.90;100.00
45275;BME280;31019;43.780;25.948;2024-03-08T08:30:32;101709.63;;;4.06;100.00
45275;BME280;31019;43.780;25.948;2024-03-08T08:32:59;101711.13;;;3.99;100.00
45275;BME280;31019;43.780;25.948;2024-03-08T08:35:26;101712.22;;;4.16;100.00
45275;BME280;31019;43.780;25.948;2024-03-08T08:37:54;101722.59;;;3.98;100.00
45275;BME280;31019;43.780;25.948;2024-03-08T08:40:21;101714.72;;;3.88;100.00
45275;BME280;31019;43.780;25.948;2024-03-08T08:42:48;101718.06;;;3.90;100.00
45275;BME280;31019;43.780;25.948;2024-03-08T08:45:16;101720.25;;;3.95;100.00
45275;BME280;31019;43.780;25.948;2024-03-08T08:47:43;101719.56;;;4.12;100.00
45275;BME280;31019;43.780;25.948;2024-03-08T08:50:11;101724.28;;;4.19;100.00
45275;BME280;31019;43.780;25.948;2024-03-08T08:52:38;101725.22;;;4.08;100.00
45275;BME280;31019;43.780;25.948;2024-03-08T08:55:05;101723.59;;;3.87;100.00
45275;BME280;31019;43.780;25.948;2024-03-08T08:57:32;101720.53;;;4.02;100.00
45275;BME280;31019;43.780;25.948;2024-03-08T09:00:00;101721.22;;;4.13;100.00
45275;BME280;31019;43.780;25.948;2024-03-08T09:02:34;101721.72;;;4.56;100.00
45275;BME280;31019;43.780;25.948;2024-03-08T09:05:00;101719.81;;;4.29;100.00
45275;BME280;31019;43.780;25.948;2024-03-08T09:07:27;101716.22;;;7.44;100.00
45275;BME280;31019;43.780;25.948;2024-03-08T09:09:54;101716.06;;;4.51;100.00
45275;BME280;31019;43.780;25.948;2024-03-08T09:12:23;101715.81;;;4.25;100.00
45275;BME280;31019;43.780;25.948;2024-03-08T09:14:50;101719.00;;;4.19;100.00
45275;BME280;31019;43.780;25.948;2024-03-08T09:17:17;101721.06;;;4.34;100.00
45275;BME280;31019;43.780;25.948;2024-03-08T09:19:47;101724.38;;;4.46;100.00
45275;BME280;31019;43.780;25.948;2024-03-08T09:22:14;101722.63;;;4.74;100.00
45275;BME280;31019;43.780;25.948;2024-03-08T09:24:41;101723.00;;;4.89;100.00
45275;BME280;31019;43.780;25.948;2024-03-08T09:27:08;101719.91;;;4.56;100.00
45275;BME280;31019;43.780;25.948;2024-03-08T09:29:36;101721.47;;;4.40;100.00
45275;BME280;31019;43.780;25.948;2024-03-08T09:32:16;101724.34;;;4.56;100.00
45275;BME280;31019;43.780;25.948;2024-03-08T09:34:43;101723.78;;;4.62;100.00
45275;BME280;31019;43.780;25.948;2024-03-08T09:37:11;101726.81;;;4.67;100.00
45275;BME280;31019;43.780;25.948;2024-03-08T09:39:38;101732.78;;;4.69;100.00
45275;BME280;31019;43.780;25.948;2024-03-08T09:42:05;101724.63;;;4.53;100.00
45275;BME280;31019;43.780;25.948;2024-03-08T09:44:33;101728.25;;;4.52;100.00
45275;BME280;31019;43.780;25.948;2024-03-08T09:47:01;101728.53;;;4.49;100.00
45275;BME280;31019;43.780;25.948;2024-03-08T09:49:28;101725.06;;;4.39;100.00
45275;BME280;31019;43.780;25.948;2024-03-08T09:51:55;101730.72;;;4.53;100.00
45275;BME280;31019;43.780;25.948;2024-03-08T09:54:24;101728.28;;;4.42;100.00
45275;BME280;31019;43.780;25.948;2024-03-08T09:56:52;101731.56;;;4.64;100.00
45275;BME280;31019;43.780;25.948;2024-03-08T09:59:19;101733.47;;;4.62;100.00
45275;BME280;31019;43.780;25.948;2024-03-08T10:02:07;101725.75;;;4.50;100.00
45275;BME280;31019;43.780;25.948;2024-03-08T10:04:39;101730.03;;;4.61;100.00
45275;BME280;31019;43.780;25.948;2024-03-08T10:07:07;101728.88;;;4.73;100.00
45275;BME280;31019;43.780;25.948;2024-03-08T10:09:36;101728.06;;;4.73;100.00
45275;BME280;31019;43.780;25.948;2024-03-08T10:12:04;101725.88;;;4.58;100.00
45275;BME280;31019;43.780;25.948;2024-03-08T10:14:32;101724.69;;;4.80;100.00
45275;BME280;31019;43.780;25.948;2024-03-08T10:16:59;101725.59;;;4.99;100.00
45275;BME280;31019;43.780;25.948;2024-03-08T10:19:26;101736.47;;;4.86;100.00
45275;BME280;31019;43.780;25.948;2024-03-08T10:21:53;101730.34;;;4.95;100.00
45275;BME280;31019;43.780;25.948;2024-03-08T10:24:22;101733.88;;;4.76;100.00
45275;BME280;31019;43.780;25.948;2024-03-08T10:26:53;101736.34;;;4.88;100.00
45275;BME280;31019;43.780;25.948;2024-03-08T10:29:20;101726.63;;;4.88;100.00
45275;BME280;31019;43.780;25.948;2024-03-08T10:31:47;101737.16;;;4.88;100.00
45275;BME280;31019;43.780;25.948;2024-03-08T10:34:15;101732.72;;;4.89;100.00
45275;BME280;31019;43.780;25.948;2024-03-08T10:36:42;101731.06;;;4.88;100.00
45275;BME280;31019;43.780;25.948;2024-03-08T10:39:17;101724.41;;;4.83;100.00
45275;BME280;31019;43.780;25.948;2024-03-08T10:41:55;101732.88;;;4.87;100.00
45275;BME280;31019;43.780;25.948;2024-03-08T10:44:40;101729.38;;;4.87;100.00
45275;BME280;31019;43.780;25.948;2024-03-08T10:47:17;101724.81;;;4.89;100.00
45275;BME280;31019;43.780;25.948;2024-03-08T10:49:55;101724.56;;;4.82;100.00
45275;BME280;31019;43.780;25.948;2024-03-08T10:52:29;101726.22;;;4.83;100.00
45275;BME280;31019;43.780;25.948;2024-03-08T10:54:57;101717.03;;;4.97;100.00
45275;BME280;31019;43.780;25.948;2024-03-08T10:57:27;101715.19;;;5.07;100.00
45275;BME280;31019;43.780;25.948;2024-03-08T10:59:55;101711.91;;;4.95;100.00
45275;BME280;31019;43.780;25.948;2024-03-08T11:02:25;101716.34;;;4.95;100.00
45275;BME280;31019;43.780;25.948;2024-03-08T11:04:53;101707.91;;;4.91;100.00
45275;BME280;31019;43.780;25.948;2024-03-08T11:07:22;101709.56;;;4.92;100.00
45275;BME280;31019;43.780;25.948;2024-03-08T11:09:48;101706.88;;;5.12;100.00
45275;BME280;31019;43.780;25.948;2024-03-08T11:12:20;101710.69;;;5.17;100.00
45275;BME280;31019;43.780;25.948;2024-03-08T11:14:49;101710.41;;;5.20;100.00
45275;BME280;31019;43.780;25.948;2024-03-08T11:17:16;101705.72;;;5.14;100.00
45275;BME280;31019;43.780;25.948;2024-03-08T11:19:48;101692.88;;;5.01;100.00
45275;BME280;31019;43.780;25.948;2024-03-08T11:22:21;101699.19;;;5.18;100.00
45275;BME280;31019;43.780;25.948;2024-03-08T11:24:50;101705.53;;;5.25;100.00
45275;BME280;31019;43.780;25.948;2024-03-08T11:27:17;101701.88;;;5.36;100.00
45275;BME280;31019;43.780;25.948;2024-03-08T11:30:01;101691.56;;;5.43;100.00
45275;BME280;31019;43.780;25.948;2024-03-08T11:32:36;101691.41;;;5.44;100.00
45275;BME280;31019;43.780;25.948;2024-03-08T11:35:07;101696.66;;;5.26;100.00
45275;BME280;31019;43.780;25.948;2024-03-08T11:37:35;101695.91;;;5.34;100.00
45275;BME280;31019;43.780;25.948;2024-03-08T11:40:06;101688.78;;;5.17;100.00
45275;BME280;31019;43.780;25.948;2024-03-08T11:42:40;101696.50;;;5.28;100.00
45275;BME280;31019;43.780;25.948;2024-03-08T11:45:09;101693.44;;;5.33;100.00
45275;BME280;31019;43.780;25.948;2024-03-08T11:47:37;101688.75;;;5.26;100.00
45275;BME280;31019;43.780;25.948;2024-03-08T11:50:09;101682.22;;;5.31;100.00
45275;BME280;31019;43.780;25.948;2024-03-08T11:52:37;101692.16;;;5.37;100.00
45275;BME280;31019;43.780;25.948;2024-03-08T11:55:05;101689.22;;;5.40;100.00
45275;BME280;31019;43.780;25.948;2024-03-08T11:57:32;101693.88;;;5.28;100.00
45275;BME280;31019;43.780;25.948;2024-03-08T11:59:59;101688.31;;;5.31;100.00
45275;BME280;31019;43.780;25.948;2024-03-08T12:02:33;101684.34;;;5.17;100.00
45275;BME280;31019;43.780;25.948;2024-03-08T12:05:04;101692.66;;;5.22;100.00
45275;BME280;31019;43.780;25.948;2024-03-08T12:07:34;101683.75;;;5.51;100.00
45275;BME280;31019;43.780;25.948;2024-03-08T12:10:15;101691.53;;;5.25;100.00
45275;BME280;31019;43.780;25.948;2024-03-08T12:12:43;101685.38;;;5.34;100.00
45275;BME280;31019;43.780;25.948;2024-03-08T12:15:10;101677.78;;;5.31;100.00
45275;BME280;31019;43.780;25.948;2024-03-08T12:17:39;101677.94;;;5.30;100.00
45275;BME280;31019;43.780;25.948;2024-03-08T12:20:12;101672.66;;;5.30;100.00
45275;BME280;31019;43.780;25.948;2024-03-08T12:22:41;101679.31;;;5.51;100.00
45275;BME280;31019;43.780;25.948;2024-03-08T12:25:10;101671.91;;;5.37;100.00
45275;BME280;31019;43.780;25.948;2024-03-08T12:27:38;101671.84;;;5.47;100.00
45275;BME280;31019;43.780;25.948;2024-03-08T12:30:19;101671.00;;;5.28;100.00
45275;BME280;31019;43.780;25.948;2024-03-08T12:32:53;101676.06;;;5.40;100.00
45275;BME280;31019;43.780;25.948;2024-03-08T12:35:24;101673.16;;;5.61;100.00
45275;BME280;31019;43.780;25.948;2024-03-08T12:37:53;101665.97;;;5.53;100.00
45275;BME280;31019;43.780;25.948;2024-03-08T12:40:26;101671.22;;;5.35;100.00
45275;BME280;31019;43.780;25.948;2024-03-08T12:42:54;101672.84;;;5.64;100.00
45275;BME280;31019;43.780;25.948;2024-03-08T12:45:21;101667.56;;;5.82;100.00
45275;BME280;31019;43.780;25.948;2024-03-08T12:47:49;101657.94;;;5.55;100.00